Time;durP1;ratioP1;P1;durP2;ratioP2;P2;SDS_P1;SDS_P2;PMS_P1;PMS_P2;Temp;Humidity;BMP_temperature;BMP_pressure;BME280_temperature;BME280_humidity;BME280_pressure;Samples;Min_cycle;Max_cycle;Signal;HPM_P1;HPM_P2
2020/12/16 00:00:48;;;;;;;44.57;21.17;;;;;;;6.47;75.27;95299.00;5031793;28;20177;-73
2020/12/16 00:03:14;;;;;;;43.30;20.73;;;;;;;6.53;74.48;95302.31;5030745;28;20679;-72
2020/12/16 00:05:39;;;;;;;44.30;21.13;;;;;;;6.57;74.87;95300.59;5031654;28;20172;-72
2020/12/16 00:08:05;;;;;;;46.20;20.53;;;;;;;6.31;75.79;95305.81;5031821;28;20172;-73
2020/12/16 00:10:30;;;;;;;42.57;22.07;;;;;;;6.40;75.11;95301.34;5031824;28;20199;-73
2020/12/16 00:12:56;;;;;;;39.60;19.10;;;;;;;6.49;74.85;95310.09;5031546;28;20172;-72
2020/12/16 00:15:21;;;;;;;45.57;19.17;;;;;;;6.53;74.52;95299.66;5031879;28;20207;-73
2020/12/16 00:17:49;;;;;;;47.10;20.30;;;;;;;6.51;74.19;95307.13;5031466;28;20176;-73
2020/12/16 00:20:14;;;;;;;49.87;21.30;;;;;;;6.47;74.38;95306.19;5031565;28;20179;-73
2020/12/16 00:22:40;;;;;;;41.97;19.57;;;;;;;6.32;74.93;95294.13;5031423;28;21106;-73
2020/12/16 00:25:06;;;;;;;40.00;20.03;;;;;;;6.37;75.01;95307.25;5030377;28;20204;-73
2020/12/16 00:27:32;;;;;;;46.33;21.27;;;;;;;6.41;74.66;95310.84;5031258;28;20216;-73
2020/12/16 00:29:57;;;;;;;41.10;18.67;;;;;;;6.34;75.14;95313.16;5031592;28;21000;-73
2020/12/16 00:32:23;;;;;;;42.07;19.93;;;;;;;6.43;74.56;95316.63;5030240;28;20231;-73
2020/12/16 00:34:48;;;;;;;44.93;19.60;;;;;;;6.54;73.89;95315.25;5031455;28;20200;-72
2020/12/16 00:37:14;;;;;;;46.00;21.50;;;;;;;6.42;74.27;95306.31;5031449;28;20204;-73
2020/12/16 00:39:39;;;;;;;45.07;19.93;;;;;;;6.40;74.60;95303.19;5031378;28;20175;-73
2020/12/16 00:42:09;;;;;;;46.20;19.97;;;;;;;6.34;74.87;95302.53;5031295;28;20286;-73
2020/12/16 00:44:34;;;;;;;46.00;19.97;;;;;;;6.37;74.95;95304.59;5031291;28;20564;-74
2020/12/16 00:47:00;;;;;;;40.17;20.23;;;;;;;6.22;75.14;95297.81;5031407;28;20587;-73
2020/12/16 00:49:26;;;;;;;51.63;22.27;;;;;;;6.35;74.58;95302.25;5031157;28;20176;-73
2020/12/16 00:51:54;;;;;;;52.60;22.47;;;;;;;6.26;75.27;95298.78;5031162;28;20195;-73
2020/12/16 00:54:20;;;;;;;45.40;19.05;;;;;;;6.17;75.25;95295.31;5031061;28;20606;-73
2020/12/16 00:56:46;;;;;;;39.60;17.40;;;;;;;6.36;74.92;95292.44;5031183;28;20211;-73
2020/12/16 00:59:11;;;;;;;48.60;19.90;;;;;;;6.33;75.09;95291.16;5031145;28;20549;-73
2020/12/16 01:01:37;;;;;;;43.00;17.30;;;;;;;6.35;74.58;95299.59;5031192;28;20681;-72
2020/12/16 01:04:02;;;;;;;47.10;20.67;;;;;;;6.17;74.94;95291.88;5034509;28;20211;-73
2020/12/16 01:06:28;;;;;;;46.27;19.80;;;;;;;6.31;74.06;95295.22;5034882;28;20168;-72
2020/12/16 01:08:53;;;;;;;39.57;19.40;;;;;;;6.30;74.55;95294.44;5035249;28;20176;-73
2020/12/16 01:11:19;;;;;;;46.13;20.10;;;;;;;6.19;75.00;95287.84;5034893;28;20180;-72
2020/12/16 01:13:44;;;;;;;39.83;18.27;;;;;;;6.23;75.27;95295.94;5035163;28;20179;-72
2020/12/16 01:16:10;;;;;;;37.30;18.37;;;;;;;6.19;75.13;95298.44;5035163;28;20371;-73
2020/12/16 01:18:36;;;;;;;36.87;16.40;;;;;;;6.09;75.57;95290.75;5034976;28;20177;-73
2020/12/16 01:21:02;;;;;;;38.23;18.03;;;;;;;6.05;75.22;95290.59;5034704;28;20263;-73
2020/12/16 01:23:27;;;;;;;41.67;16.90;;;;;;;6.07;76.24;95298.25;5034655;28;20638;-73
2020/12/16 01:25:53;;;;;;;47.60;19.40;;;;;;;6.04;75.92;95290.91;5034594;28;20179;-73
2020/12/16 01:28:19;;;;;;;36.43;17.10;;;;;;;6.04;75.84;95294.31;5033715;28;20168;-73
2020/12/16 01:30:44;;;;;;;37.77;17.23;;;;;;;5.96;76.08;95291.66;5033211;28;20192;-72
2020/12/16 01:33:10;;;;;;;34.93;16.87;;;;;;;5.86;76.24;95289.22;5034465;28;20590;-73
2020/12/16 01:35:35;;;;;;;35.57;14.73;;;;;;;5.78;76.79;95290.72;5034610;28;20173;-73
2020/12/16 01:38:01;;;;;;;33.27;15.60;;;;;;;5.93;75.74;95286.94;5034332;28;20180;-72
2020/12/16 01:40:26;;;;;;;38.93;16.77;;;;;;;5.95;75.65;95284.75;5034525;28;20647;-72
2020/12/16 01:42:52;;;;;;;40.83;16.50;;;;;;;5.77;76.74;95283.88;5034191;28;20216;-73
2020/12/16 01:45:21;;;;;;;45.60;18.73;;;;;;;5.82;77.05;95287.19;5034577;28;20255;-73
2020/12/16 01:47:48;;;;;;;39.80;16.97;;;;;;;5.83;76.76;95287.97;5033070;28;20280;-73
2020/12/16 01:50:13;;;;;;;32.37;13.70;;;;;;;5.96;75.76;95281.06;5034375;28;20602;-73
2020/12/16 01:52:39;;;;;;;38.23;15.20;;;;;;;5.93;75.77;95286.94;5034296;28;20594;-73
2020/12/16 01:55:06;;;;;;;38.00;16.90;;;;;;;5.88;76.33;95282.53;5034141;28;20204;-73
2020/12/16 01:57:35;;;;;;;31.87;14.47;;;;;;;5.91;75.72;95284.63;5034341;28;20187;-73
2020/12/16 02:00:00;;;;;;;31.50;14.13;;;;;;;5.96;75.73;95284.47;5032871;28;20595;-72
2020/12/16 02:02:27;;;;;;;34.50;14.63;;;;;;;5.92;76.34;95290.69;5016696;28;20215;-72
2020/12/16 02:04:52;;;;;;;33.63;15.03;;;;;;;5.82;75.76;95276.56;5016270;28;20624;-73
2020/12/16 02:07:18;;;;;;;29.77;13.67;;;;;;;5.82;76.13;95275.78;5000048;28;20668;-72
2020/12/16 02:09:47;;;;;;;34.83;14.10;;;;;;;5.88;76.06;95285.19;5016212;28;20185;-73
2020/12/16 02:12:19;;;;;;;37.07;15.47;;;;;;;5.89;75.87;95281.44;5034206;28;20188;-73
2020/12/16 02:14:45;;;;;;;30.87;13.03;;;;;;;5.80;76.58;95283.28;5032955;28;20705;-72
2020/12/16 02:17:11;;;;;;;24.70;12.63;;;;;;;5.72;76.29;95291.94;5032406;28;20618;-72
2020/12/16 02:19:43;;;;;;;27.97;12.70;;;;;;;5.76;76.58;95282.31;5033569;28;20179;-72
2020/12/16 02:22:12;;;;;;;29.83;13.47;;;;;;;5.82;76.18;95287.19;5033581;28;20206;-73
2020/12/16 02:24:48;;;;;;;32.37;14.60;;;;;;;5.77;77.08;95286.53;5033635;28;20693;-73
2020/12/16 02:27:13;;;;;;;35.63;15.67;;;;;;;5.66;76.91;95290.53;5032464;28;20637;-73
2020/12/16 02:29:39;;;;;;;34.17;14.07;;;;;;;5.56;77.20;95292.34;5033403;28;20578;-73
2020/12/16 02:32:04;;;;;;;35.33;13.23;;;;;;;5.72;76.50;95291.94;5033687;28;20207;-73
2020/12/16 02:34:30;;;;;;;31.67;12.87;;;;;;;5.67;76.37;95286.78;5033468;28;20266;-73
2020/12/16 02:36:56;;;;;;;25.57;12.33;;;;;;;5.68;76.53;95294.44;5033369;28;20168;-72
2020/12/16 02:39:21;;;;;;;21.83;11.50;;;;;;;5.60;75.94;95289.88;5033162;28;20267;-72
2020/12/16 02:41:47;;;;;;;22.97;10.50;;;;;;;5.57;76.27;95295.78;5032719;28;20264;-72
2020/12/16 02:44:12;;;;;;;27.17;11.37;;;;;;;5.66;75.59;95283.34;5033605;28;20179;-73
2020/12/16 02:46:38;;;;;;;27.77;11.23;;;;;;;5.65;75.39;95289.75;5033187;28;20180;-72
2020/12/16 02:49:04;;;;;;;26.63;11.87;;;;;;;5.50;76.29;95279.50;5033314;28;20260;-73
2020/12/16 02:51:30;;;;;;;26.17;11.57;;;;;;;5.56;75.91;95291.56;5032951;28;20168;-73
2020/12/16 02:53:55;;;;;;;24.73;10.57;;;;;;;5.35;76.61;95285.97;5033211;28;20566;-73
2020/12/16 02:56:21;;;;;;;28.23;11.63;;;;;;;5.39;75.71;95278.19;5033124;28;20263;-72
2020/12/16 02:58:46;;;;;;;21.60;10.27;;;;;;;5.27;77.24;95291.97;5033199;28;20168;-72
2020/12/16 03:01:12;;;;;;;26.30;11.97;;;;;;;5.51;76.02;95289.06;5033127;28;20204;-72
2020/12/16 03:03:38;;;;;;;30.23;11.83;;;;;;;5.48;76.25;95295.72;5032788;28;20215;-73
2020/12/16 03:06:03;;;;;;;30.97;12.03;;;;;;;5.28;76.79;95288.28;5032947;28;20663;-73
2020/12/16 03:08:29;;;;;;;28.77;12.17;;;;;;;5.23;77.39;95289.16;5032629;28;20168;-72
2020/12/16 03:10:54;;;;;;;30.17;12.20;;;;;;;5.16;77.81;95293.31;5032909;28;20315;-72
2020/12/16 03:13:20;;;;;;;30.07;12.20;;;;;;;5.25;77.59;95297.59;5032406;28;20172;-72
2020/12/16 03:15:45;;;;;;;30.13;13.13;;;;;;;5.18;77.54;95302.53;5032445;28;20671;-72
2020/12/16 03:18:11;;;;;;;31.13;11.10;;;;;;;5.19;78.01;95292.72;5032023;28;20176;-72
2020/12/16 03:20:36;;;;;;;29.53;11.87;;;;;;;5.33;77.07;95306.66;5011342;28;20223;-72
2020/12/16 03:23:02;;;;;;;25.20;11.40;;;;;;;5.38;76.35;95303.91;5010852;28;20251;-72
2020/12/16 03:25:27;;;;;;;27.20;11.00;;;;;;;5.31;76.93;95304.31;5010729;28;20182;-72
2020/12/16 03:27:53;;;;;;;34.33;12.53;;;;;;;5.11;77.19;95310.09;5011136;28;20703;-72
2020/12/16 03:30:18;;;;;;;27.93;12.40;;;;;;;5.00;78.10;95303.47;5011262;28;20173;-72
2020/12/16 03:32:44;;;;;;;34.20;10.83;;;;;;;5.02;77.86;95307.38;5011748;28;20192;-72
2020/12/16 03:35:09;;;;;;;34.07;11.60;;;;;;;5.25;77.49;95307.41;5011394;28;20173;-71
2020/12/16 03:37:35;;;;;;;30.27;11.70;;;;;;;5.01;78.23;95303.16;5011559;28;20184;-74
2020/12/16 03:40:00;;;;;;;28.03;11.17;;;;;;;5.15;77.94;95300.47;5011091;28;20745;-72
2020/12/16 03:42:26;;;;;;;28.37;10.67;;;;;;;5.11;78.25;95304.81;5011480;28;20249;-72
2020/12/16 03:44:51;;;;;;;25.47;11.43;;;;;;;5.19;77.49;95285.56;5011127;28;20188;-73
2020/12/16 03:47:17;;;;;;;32.77;11.80;;;;;;;5.17;77.68;95290.38;5011253;28;20181;-73
2020/12/16 03:49:42;;;;;;;29.37;11.83;;;;;;;5.31;77.48;95304.31;5011390;28;20207;-72
2020/12/16 03:52:08;;;;;;;30.00;12.03;;;;;;;5.42;76.98;95312.81;5012237;28;20177;-73
2020/12/16 03:54:33;;;;;;;26.53;11.00;;;;;;;5.30;76.75;95313.34;5012295;28;20629;-73
2020/12/16 03:56:59;;;;;;;34.20;12.23;;;;;;;5.37;77.24;95312.94;5012255;28;20704;-74
2020/12/16 03:59:24;;;;;;;30.63;12.63;;;;;;;5.39;76.53;95315.28;5012448;28;20199;-73
2020/12/16 04:01:51;;;;;;;28.47;11.60;;;;;;;5.33;76.67;95314.59;5012035;28;20196;-73
2020/12/16 04:04:16;;;;;;;28.10;10.83;;;;;;;5.52;76.06;95319.75;5012288;28;20549;-73
2020/12/16 04:06:42;;;;;;;33.10;11.43;;;;;;;5.40;76.80;95316.84;5011758;28;20599;-73
2020/12/16 04:09:07;;;;;;;30.97;11.53;;;;;;;5.36;77.42;95313.25;5012092;28;20216;-73
2020/12/16 04:11:33;;;;;;;24.20;10.80;;;;;;;5.37;76.89;95323.53;5012112;28;20157;-73
2020/12/16 04:13:58;;;;;;;23.57;10.10;;;;;;;5.16;76.95;95317.94;5012359;28;20183;-73
2020/12/16 04:16:24;;;;;;;27.93;10.47;;;;;;;5.03;77.38;95324.81;5012325;28;20183;-73
2020/12/16 04:18:50;;;;;;;25.43;11.17;;;;;;;5.15;77.95;95326.16;5011971;28;20267;-72
2020/12/16 04:21:16;;;;;;;25.73;10.47;;;;;;;5.25;77.43;95325.94;5012011;28;20200;-73
2020/12/16 04:23:41;;;;;;;29.37;10.33;;;;;;;5.08;77.05;95320.50;5011652;28;20287;-72
2020/12/16 04:26:07;;;;;;;33.27;11.20;;;;;;;5.06;77.86;95322.69;5011690;28;20734;-72
2020/12/16 04:28:36;;;;;;;30.47;10.90;;;;;;;5.09;77.31;95327.34;5011965;28;20185;-73
2020/12/16 04:31:03;;;;;;;28.35;11.50;;;;;;;4.97;77.60;95320.72;5012126;28;20179;-72
2020/12/16 04:33:28;;;;;;;25.27;10.13;;;;;;;5.08;77.25;95328.44;5010482;28;20546;-73
2020/12/16 04:35:54;;;;;;;24.27;9.57;;;;;;;5.06;77.32;95328.75;5011719;28;20678;-73
2020/12/16 04:38:19;;;;;;;22.83;9.33;;;;;;;5.10;77.31;95344.78;5011295;28;20177;-72
2020/12/16 04:40:45;;;;;;;25.47;10.50;;;;;;;5.25;76.80;95344.47;5011723;28;20267;-73
2020/12/16 04:43:15;;;;;;;24.70;9.70;;;;;;;5.17;77.01;95338.03;5011645;28;20276;-73
2020/12/16 04:45:41;;;;;;;24.95;9.98;;;;;;;5.14;76.86;95346.56;5011525;28;20180;-74
2020/12/16 04:48:07;;;;;;;25.77;9.40;;;;;;;5.17;76.64;95345.97;5011741;28;20209;-73
2020/12/16 04:50:33;;;;;;;22.83;10.52;;;;;;;5.24;76.21;95356.91;5011443;28;20330;-73
2020/12/16 04:53:04;;;;;;;16.97;8.07;;;;;;;5.24;77.41;95356.13;5011697;28;20720;-73
2020/12/16 04:55:29;;;;;;;22.75;8.75;;;;;;;5.30;76.92;95352.28;5010089;28;20539;-72
2020/12/16 04:57:55;;;;;;;17.90;7.67;;;;;;;5.13;76.74;95360.88;5011673;28;20188;-71
2020/12/16 05:00:23;;;;;;;18.53;8.30;;;;;;;5.02;76.22;95351.59;5011325;28;20181;-72
2020/12/16 05:03:02;;;;;;;12.90;6.65;;;;;;;4.79;76.95;95348.09;5011543;28;20204;-73
2020/12/16 05:05:28;;;;;;;11.10;6.10;;;;;;;4.94;76.33;95361.03;5011204;28;20180;-73
2020/12/16 05:07:53;;;;;;;16.42;7.63;;;;;;;4.86;77.13;95364.34;5011348;28;20989;-73
2020/12/16 05:10:33;;;;;;;15.27;6.73;;;;;;;5.03;76.51;95367.16;5011416;28;20177;-72
2020/12/16 05:13:25;;;;;;;14.35;7.00;;;;;;;5.05;76.38;95369.53;5011586;28;20181;-72
2020/12/16 05:15:51;;;;;;;15.27;7.70;;;;;;;5.07;76.43;95359.41;5010932;28;20247;-73
2020/12/16 05:18:17;;;;;;;13.70;6.67;;;;;;;5.19;76.53;95370.28;5011310;28;20586;-73
2020/12/16 05:20:54;;;;;;;17.75;7.00;;;;;;;5.15;76.19;95373.81;5010983;28;20173;-73
2020/12/16 05:23:29;;;;;;;17.08;6.28;;;;;;;5.23;75.46;95383.72;5011391;28;20207;-74
2020/12/16 05:26:04;;;;;;;13.35;7.20;;;;;;;5.09;75.77;95386.38;5009905;28;20557;-75
2020/12/16 05:28:31;;;;;;;16.63;7.88;;;;;;;5.02;77.07;95389.44;5011362;28;20180;-74
2020/12/16 05:30:57;;;;;;;16.90;7.70;;;;;;;4.82;76.61;95389.06;5011184;28;20196;-73
2020/12/16 05:33:23;;;;;;;12.77;6.30;;;;;;;4.89;76.66;95387.59;5011141;28;20787;-73
2020/12/16 05:35:53;;;;;;;16.30;7.30;;;;;;;4.95;76.08;95391.69;5011095;28;20186;-73
2020/12/16 05:38:19;;;;;;;13.43;6.43;;;;;;;5.24;74.65;95387.91;5011282;28;20249;-73
2020/12/16 05:40:45;;;;;;;16.67;8.27;;;;;;;5.08;76.22;95392.75;5009846;28;20185;-73
2020/12/16 05:43:21;;;;;;;12.77;7.43;;;;;;;4.94;76.60;95399.94;5011192;28;20292;-72
2020/12/16 05:45:46;;;;;;;13.43;7.10;;;;;;;4.95;75.89;95404.94;5010803;28;20694;-73
2020/12/16 05:48:12;;;;;;;14.93;6.70;;;;;;;5.10;75.13;95401.16;5011268;28;20212;-72
2020/12/16 05:50:45;;;;;;;11.93;7.17;;;;;;;5.09;74.68;95402.25;5012010;28;20191;-73
2020/12/16 05:53:12;;;;;;;13.23;7.07;;;;;;;4.56;76.06;95365.00;5013543;28;20176;-74
2020/12/16 05:55:38;;;;;;;11.25;5.85;;;;;;;4.88;75.57;95411.69;5013070;28;20678;-72
2020/12/16 05:58:10;;;;;;;11.40;7.00;;;;;;;4.89;75.66;95406.13;5014417;28;20252;-72
2020/12/16 06:00:53;;;;;;;13.50;6.72;;;;;;;4.85;75.73;95402.47;5014160;28;20188;-73
2020/12/16 06:03:23;;;;;;;11.67;6.07;;;;;;;5.10;74.13;95408.31;5013527;28;20244;-73
2020/12/16 06:06:10;;;;;;;9.27;5.32;;;;;;;4.70;75.56;95408.84;5012949;28;20587;-73
2020/12/16 06:08:39;;;;;;;8.45;4.65;;;;;;;4.82;74.76;95407.56;5014248;28;20201;-72
2020/12/16 06:11:09;;;;;;;9.40;5.63;;;;;;;5.01;74.08;95419.63;5013924;28;20691;-73
2020/12/16 06:13:35;;;;;;;8.68;5.22;;;;;;;4.89;74.58;95414.06;5014232;28;20640;-73
2020/12/16 06:16:02;;;;;;;11.32;6.28;;;;;;;4.75;75.05;95424.63;5013952;28;20205;-73
2020/12/16 06:18:33;;;;;;;12.52;6.43;;;;;;;4.88;75.23;95424.91;5014044;28;20185;-72
2020/12/16 06:20:58;;;;;;;12.68;5.97;;;;;;;5.12;74.45;95425.50;5013918;28;20189;-73
2020/12/16 06:23:32;;;;;;;12.17;6.03;;;;;;;5.11;74.87;95431.09;5013964;28;20212;-73
2020/12/16 06:25:58;;;;;;;12.43;6.88;;;;;;;5.12;74.29;95435.31;5013874;28;20169;-72
2020/12/16 06:28:24;;;;;;;13.60;7.07;;;;;;;5.03;75.51;95437.84;5013902;28;20209;-73
2020/12/16 06:30:55;;;;;;;12.37;6.97;;;;;;;4.83;75.24;95439.06;5013813;28;20181;-73
2020/12/16 06:33:29;;;;;;;15.80;6.50;;;;;;;4.95;74.93;95447.28;5013771;28;20260;-73
2020/12/16 06:35:58;;;;;;;13.07;6.63;;;;;;;4.78;75.43;95439.94;5012472;28;20180;-72
2020/12/16 06:38:23;;;;;;;13.38;6.93;;;;;;;4.84;76.01;95439.84;5012467;28;20188;-73
2020/12/16 06:40:53;;;;;;;12.47;6.90;;;;;;;5.11;74.36;95442.47;5013499;28;20180;-73
2020/12/16 06:43:30;;;;;;;12.60;6.72;;;;;;;5.10;75.93;95440.88;5013721;28;20208;-73
2020/12/16 06:45:56;;;;;;;12.93;6.53;;;;;;;4.93;75.55;95433.53;5013476;28;20180;-72
2020/12/16 06:48:37;;;;;;;16.17;7.80;;;;;;;4.84;75.68;95439.84;5013563;28;20579;-72
2020/12/16 06:51:20;;;;;;;16.77;7.78;;;;;;;4.99;75.96;95434.22;5013170;28;20181;-72
2020/12/16 06:53:45;;;;;;;20.02;8.40;;;;;;;4.79;76.38;95438.06;5013380;28;20211;-73
2020/12/16 06:56:11;;;;;;;14.90;7.90;;;;;;;4.80;77.00;95447.56;5013224;28;20176;-73
2020/12/16 06:58:39;;;;;;;20.37;8.97;;;;;;;5.07;75.33;95438.06;5013617;28;20544;-74
2020/12/16 07:01:16;;;;;;;13.23;6.75;;;;;;;5.00;76.01;95439.22;5012737;28;20204;-72
2020/12/16 07:03:41;;;;;;;16.88;7.82;;;;;;;5.14;75.47;95447.16;5013049;28;20212;-72
2020/12/16 07:06:13;;;;;;;18.60;8.43;;;;;;;4.97;76.11;95447.75;5013048;28;20644;-73
2020/12/16 07:08:39;;;;;;;21.47;8.10;;;;;;;5.11;75.36;95447.75;5012105;28;20200;-74
2020/12/16 07:11:05;;;;;;;16.03;7.77;;;;;;;5.23;75.06;95452.53;5012914;28;20761;-73
2020/12/16 07:13:34;;;;;;;12.03;6.47;;;;;;;5.19;74.13;95451.56;5013526;28;20212;-73
2020/12/16 07:16:09;;;;;;;12.57;6.23;;;;;;;5.30;74.48;95450.28;5011606;28;20177;-73
2020/12/16 07:18:44;;;;;;;16.58;6.60;;;;;;;5.41;73.13;95451.63;5013157;28;20623;-72
2020/12/16 07:21:19;;;;;;;13.13;6.07;;;;;;;5.42;73.09;95445.25;5012733;28;20267;-73
2020/12/16 07:23:56;;;;;;;9.23;5.88;;;;;;;5.40;72.78;95442.13;5012905;28;20741;-74
2020/12/16 07:26:50;;;;;;;18.60;6.07;;;;;;;5.43;73.49;95438.84;5010930;28;20225;-73
2020/12/16 07:29:22;;;;;;;20.60;5.97;;;;;;;5.48;72.19;95445.91;5012403;28;20207;-73
2020/12/16 07:32:11;;;;;;;14.60;5.00;;;;;;;5.16;73.70;95446.84;5011660;28;20682;-73
2020/12/16 07:34:53;;;;;;;9.93;5.37;;;;;;;5.29;73.91;95444.19;5012516;28;20587;-74
2020/12/16 07:37:22;;;;;;;9.33;5.57;;;;;;;5.24;73.73;95446.94;5011393;28;20673;-74
2020/12/16 07:39:50;;;;;;;10.83;5.60;;;;;;;5.19;74.73;95449.69;5012620;28;21075;-73
2020/12/16 07:42:31;;;;;;;11.35;5.30;;;;;;;5.37;74.24;95450.63;5012605;28;20591;-73
2020/12/16 07:45:01;;;;;;;9.90;5.90;;;;;;;5.40;73.32;95444.75;5012558;28;20563;-73
2020/12/16 07:47:27;;;;;;;8.68;5.68;;;;;;;5.44;73.32;95448.34;5011085;28;21272;-74
2020/12/16 07:49:53;;;;;;;6.10;4.67;;;;;;;5.43;73.52;95452.09;5012321;28;20177;-72
2020/12/16 07:52:25;;;;;;;10.73;5.63;;;;;;;5.42;73.36;95447.88;5012377;28;20180;-73
2020/12/16 07:54:50;;;;;;;7.43;4.87;;;;;;;5.27;74.09;95458.78;5010848;28;20177;-74
2020/12/16 07:57:16;;;;;;;13.43;6.00;;;;;;;5.27;73.85;95459.56;5012347;28;20619;-73
2020/12/16 07:59:41;;;;;;;11.17;6.43;;;;;;;5.36;73.85;95464.19;5012097;28;20172;-72
2020/12/16 08:02:12;;;;;;;11.10;6.13;;;;;;;5.12;74.43;95461.78;5012252;28;20173;-73
2020/12/16 08:04:39;;;;;;;9.15;5.82;;;;;;;5.17;73.91;95456.38;5011944;28;20199;-74
2020/12/16 08:07:18;;;;;;;11.30;5.60;;;;;;;5.32;73.82;95467.41;5011085;28;20181;-74
2020/12/16 08:10:00;;;;;;;11.43;5.40;;;;;;;5.27;73.98;95461.44;5011842;28;21180;-73
2020/12/16 08:12:27;;;;;;;10.25;6.05;;;;;;;5.24;73.93;95462.06;5011328;28;20207;-72
2020/12/16 08:15:10;;;;;;;14.02;7.22;;;;;;;5.28;73.84;95466.47;5011734;28;20180;-74
2020/12/16 08:17:43;;;;;;;12.90;6.22;;;;;;;5.19;73.87;95464.81;5010713;28;20234;-73
2020/12/16 08:20:19;;;;;;;9.33;5.70;;;;;;;5.03;74.60;95451.88;5011861;28;20181;-72
2020/12/16 08:22:46;;;;;;;8.87;5.53;;;;;;;5.21;74.97;95475.88;5011775;28;21028;-73
2020/12/16 08:25:12;;;;;;;10.50;5.77;;;;;;;5.22;74.45;95469.50;5011760;28;20603;-75
2020/12/16 08:27:47;;;;;;;8.33;5.53;;;;;;;5.10;75.42;95477.16;5010188;28;20639;-74
2020/12/16 08:30:31;;;;;;;10.20;6.15;;;;;;;5.22;74.92;95480.09;5011776;28;20636;-72
2020/12/16 08:32:59;;;;;;;12.82;7.82;;;;;;;5.11;75.22;95468.94;5010678;28;20196;-73
2020/12/16 08:35:27;;;;;;;12.45;6.30;;;;;;;5.17;74.90;95469.63;5011886;28;20588;-73
2020/12/16 08:37:54;;;;;;;9.13;6.00;;;;;;;5.40;73.88;95471.25;5010489;28;20185;-73
2020/12/16 08:40:20;;;;;;;10.18;6.68;;;;;;;5.43;73.84;95470.63;5011528;28;20547;-73
2020/12/16 08:42:45;;;;;;;10.47;5.70;;;;;;;5.40;74.25;95465.16;5010945;28;20252;-72
2020/12/16 08:45:11;;;;;;;11.43;6.33;;;;;;;5.46;74.17;95469.28;5011452;28;20204;-72
2020/12/16 08:47:37;;;;;;;10.30;5.87;;;;;;;5.48;74.09;95462.59;5011640;28;20718;-73
2020/12/16 08:50:12;;;;;;;10.50;6.00;;;;;;;5.57;73.84;95462.69;5011291;28;20204;-74
2020/12/16 08:52:42;;;;;;;10.70;6.90;;;;;;;5.36;73.52;95464.97;5011592;28;20575;-72
2020/12/16 08:55:12;;;;;;;13.97;6.13;;;;;;;5.47;73.42;95461.03;5010634;28;21037;-73
2020/12/16 08:57:48;;;;;;;9.10;5.17;;;;;;;5.36;74.16;95451.72;5009836;28;20595;-73
2020/12/16 09:00:13;;;;;;;10.10;5.90;;;;;;;5.20;74.43;95451.25;5010360;28;20951;-73
2020/12/16 09:02:39;;;;;;;10.17;6.63;;;;;;;5.53;73.26;95451.88;5011409;28;20634;-73
2020/12/16 09:05:04;;;;;;;13.37;7.40;;;;;;;5.44;73.61;95448.34;5011229;28;20645;-74
2020/12/16 09:07:30;;;;;;;11.00;7.00;;;;;;;5.22;74.94;95449.13;5011263;28;20248;-73
2020/12/16 09:09:57;;;;;;;12.67;7.33;;;;;;;5.30;74.81;95443.09;5011248;28;20172;-73
2020/12/16 09:12:23;;;;;;;16.27;8.00;;;;;;;5.38;74.17;95444.25;5011594;28;20208;-74
2020/12/16 09:14:51;;;;;;;11.87;7.73;;;;;;;5.33;73.75;95444.38;5009657;28;20943;-74
2020/12/16 09:17:17;;;;;;;12.75;6.63;;;;;;;5.23;74.07;95445.38;5011405;28;20184;-74
2020/12/16 09:19:42;;;;;;;12.47;8.57;;;;;;;5.09;74.81;95449.13;5011101;28;20244;-73
2020/12/16 09:22:08;;;;;;;15.67;8.50;;;;;;;5.09;74.91;95446.47;5011055;28;20165;-73
2020/12/16 09:24:33;;;;;;;10.50;6.50;;;;;;;5.10;75.12;95434.78;5013694;28;20707;-74
2020/12/16 09:27:05;;;;;;;12.13;7.93;;;;;;;5.06;74.57;95431.97;5015062;28;20715;-74
2020/12/16 09:29:30;;;;;;;12.85;7.80;;;;;;;4.99;75.83;95424.44;5014909;28;20177;-73
2020/12/16 09:32:12;;;;;;;12.63;7.80;;;;;;;5.18;75.62;95434.91;5014968;28;20560;-72
2020/12/16 09:34:47;;;;;;;16.77;8.57;;;;;;;5.31;74.56;95428.78;5014678;28;20187;-73
2020/12/16 09:37:14;;;;;;;15.03;8.97;;;;;;;5.48;73.80;95435.31;5015035;28;20183;-73
2020/12/16 09:39:40;;;;;;;13.98;8.63;;;;;;;5.43;73.99;95427.47;5014675;28;20957;-73
2020/12/16 09:42:10;;;;;;;14.73;8.23;;;;;;;5.55;73.23;95425.09;5015013;28;20193;-74
2020/12/16 09:44:36;;;;;;;12.17;8.33;;;;;;;5.35;74.59;95426.31;5014651;28;20184;-72
2020/12/16 09:47:18;;;;;;;13.60;7.60;;;;;;;5.29;74.31;95425.66;5014666;28;20575;-72
2020/12/16 09:49:46;;;;;;;15.90;8.97;;;;;;;5.38;74.16;95425.72;5014323;28;20181;-73
2020/12/16 09:52:25;;;;;;;15.73;9.67;;;;;;;5.36;73.57;95427.91;5014505;28;20576;-73
2020/12/16 09:54:50;;;;;;;13.10;7.93;;;;;;;5.49;73.75;95427.06;5014192;28;20613;-72
2020/12/16 09:57:19;;;;;;;14.73;9.07;;;;;;;5.67;73.19;95425.38;5014612;28;20599;-72
2020/12/16 09:59:45;;;;;;;15.00;7.60;;;;;;;5.51;73.99;95424.91;5014220;28;20189;-73
2020/12/16 10:02:12;;;;;;;14.97;8.43;;;;;;;5.57;74.01;95423.72;5012593;28;21100;-73
2020/12/16 10:04:38;;;;;;;11.93;8.00;;;;;;;5.64;73.84;95415.34;5013209;28;20231;-73
2020/12/16 10:07:03;;;;;;;14.47;8.57;;;;;;;5.67;72.87;95414.75;5014280;28;20584;-74
2020/12/16 10:09:29;;;;;;;14.23;8.43;;;;;;;5.58;74.00;95414.69;5014427;28;20181;-72
2020/12/16 10:11:54;;;;;;;17.87;8.77;;;;;;;5.23;75.32;95418.13;5014026;28;20204;-74
2020/12/16 10:14:20;;;;;;;14.37;8.60;;;;;;;5.44;74.87;95402.56;5014023;28;20184;-73
2020/12/16 10:16:48;;;;;;;16.60;10.70;;;;;;;5.56;74.07;95405.47;5014056;28;20205;-73
2020/12/16 10:19:16;;;;;;;16.87;11.07;;;;;;;5.46;74.65;95409.13;5013977;28;20169;-73
2020/12/16 10:21:42;;;;;;;21.60;10.43;;;;;;;5.64;73.92;95402.09;5013775;28;20638;-73
2020/12/16 10:24:08;;;;;;;20.83;11.10;;;;;;;5.65;74.29;95403.66;5013992;28;20674;-75
2020/12/16 10:26:33;;;;;;;21.97;11.53;;;;;;;5.70;74.73;95400.13;5013729;28;20275;-74
2020/12/16 10:28:59;;;;;;;19.40;11.07;;;;;;;5.78;73.74;95400.19;5013892;28;21130;-73
2020/12/16 10:31:24;;;;;;;19.33;11.10;;;;;;;5.84;73.07;95403.50;5013766;28;20205;-74
2020/12/16 10:33:50;;;;;;;19.83;12.27;;;;;;;5.92;73.97;95396.72;5014135;28;20189;-72
2020/12/16 10:36:15;;;;;;;22.37;11.43;;;;;;;6.00;72.15;95401.28;5013008;28;20231;-72
2020/12/16 10:38:41;;;;;;;22.83;12.20;;;;;;;5.86;73.35;95392.59;5013591;28;20172;-73
2020/12/16 10:41:06;;;;;;;19.33;11.03;;;;;;;5.85;73.38;95394.47;5013743;28;20640;-73
2020/12/16 10:43:32;;;;;;;23.30;12.63;;;;;;;5.75;73.75;95398.13;5013388;28;20235;-73
2020/12/16 10:45:58;;;;;;;18.30;12.02;;;;;;;5.80;73.71;95389.28;5013609;28;20173;-72
2020/12/16 10:48:23;;;;;;;22.10;12.70;;;;;;;5.94;73.94;95392.66;5013814;28;20303;-72
2020/12/16 10:50:50;;;;;;;20.13;12.30;;;;;;;6.07;73.43;95372.47;5013716;28;20234;-73
2020/12/16 10:53:16;;;;;;;21.47;11.83;;;;;;;6.15;72.41;95384.22;5013441;28;20173;-73
2020/12/16 10:55:41;;;;;;;21.60;11.27;;;;;;;5.87;73.86;95381.69;5013478;28;21248;-73
2020/12/16 10:58:07;;;;;;;23.33;13.70;;;;;;;5.95;72.58;95374.88;5012061;28;20192;-73
2020/12/16 11:00:32;;;;;;;21.03;13.20;;;;;;;5.91;73.22;95380.03;5013109;28;20166;-72
2020/12/16 11:02:58;;;;;;;23.17;13.13;;;;;;;5.99;73.89;95371.34;5013167;28;20196;-73
2020/12/16 11:05:23;;;;;;;19.57;12.00;;;;;;;6.10;72.49;95382.47;5013015;28;20173;-74
2020/12/16 11:07:49;;;;;;;26.17;13.17;;;;;;;6.02;72.80;95375.25;5012068;28;20260;-73
2020/12/16 11:10:14;;;;;;;25.63;12.43;;;;;;;6.04;73.02;95376.50;5011629;28;20196;-73
2020/12/16 11:12:40;;;;;;;20.63;13.33;;;;;;;6.21;72.17;95373.16;5013257;28;20175;-73
2020/12/16 11:15:06;;;;;;;27.50;14.03;;;;;;;6.19;72.03;95371.91;5012853;28;20251;-73
2020/12/16 11:17:31;;;;;;;26.20;14.43;;;;;;;6.14;72.41;95372.81;5012961;28;20176;-73
2020/12/16 11:19:57;;;;;;;31.43;14.20;;;;;;;6.02;73.78;95376.03;5012742;28;20234;-72
2020/12/16 11:22:22;;;;;;;27.67;14.57;;;;;;;5.73;74.24;95363.22;5012969;28;20169;-74
2020/12/16 11:24:48;;;;;;;26.90;17.03;;;;;;;5.71;74.47;95365.38;5013045;28;20165;-73
2020/12/16 11:27:13;;;;;;;30.93;15.63;;;;;;;5.81;74.92;95362.47;5011152;28;20703;-73
2020/12/16 11:29:39;;;;;;;29.47;15.87;;;;;;;5.95;73.93;95362.44;5011861;28;20192;-72
2020/12/16 11:32:04;;;;;;;27.97;15.97;;;;;;;5.86;74.27;95350.97;5012607;28;20209;-72